createdAt,value
2022-11-26T00:02:31.481Z,5.63
2022-11-26T00:04:59.520Z,5.70
2022-11-26T00:07:29.828Z,5.73
2022-11-26T00:09:58.685Z,5.92
2022-11-26T14:14:26.181Z,11.85
2022-11-26T14:17:33.902Z,11.66
2022-11-26T14:20:03.100Z,11.59
2022-11-26T14:22:37.332Z,11.50
2022-11-26T14:25:07.073Z,11.40
2022-11-26T14:27:40.999Z,11.31
2022-11-26T14:30:07.547Z,11.22
2022-11-26T14:32:46.160Z,11.13
2022-11-26T14:35:33.947Z,11.03
2022-11-26T14:38:02.102Z,10.99
2022-11-26T14:40:38.759Z,10.83
2022-11-26T14:43:11.354Z,10.77
2022-11-26T14:45:38.318Z,10.59
2022-11-26T14:48:05.659Z,10.43
2022-11-26T14:50:36.129Z,10.26
2022-11-26T14:53:06.258Z,10.08
2022-11-26T14:55:34.858Z,9.94
2022-11-26T14:58:09.869Z,9.76
2022-11-26T15:00:36.880Z,9.59
2022-11-26T15:03:04.181Z,9.53
2022-11-26T15:05:33.450Z,9.39
2022-11-26T15:08:15.036Z,9.35
2022-11-26T15:10:49.873Z,9.25
2022-11-26T15:13:32.793Z,9.16
2022-11-26T15:16:02.071Z,9.11
2022-11-26T15:18:32.701Z,8.98
2022-11-26T15:21:02.235Z,8.93
2022-11-26T15:23:32.933Z,8.89
2022-11-26T15:26:00.668Z,8.79
2022-11-26T15:28:28.205Z,8.77
2022-11-26T15:31:03.606Z,8.76
2022-11-26T15:33:34.343Z,8.75
2022-11-26T15:36:02.509Z,8.77
2022-11-26T15:38:31.357Z,8.78
2022-11-26T15:40:59.245Z,8.78
2022-11-26T15:43:25.790Z,8.75
2022-11-26T15:45:55.922Z,8.73
2022-11-26T15:48:50.539Z,8.71
2022-11-26T15:51:23.082Z,8.65
2022-11-26T15:53:50.548Z,8.62
2022-11-26T15:56:24.320Z,8.59
2022-11-26T15:58:59.522Z,8.54
2022-11-26T16:01:32.595Z,8.48
2022-11-26T16:04:06.348Z,8.43
2022-11-26T16:06:38.173Z,8.28
2022-11-26T16:09:04.687Z,8.30
2022-11-26T16:11:34.438Z,8.26
2022-11-26T16:14:22.697Z,8.24
2022-11-26T16:16:51.412Z,8.23
2022-11-26T16:19:18.505Z,8.22
2022-11-26T16:21:50.653Z,8.18
2022-11-26T16:24:27.196Z,8.11
2022-11-26T16:26:57.524Z,8.09
2022-11-26T16:29:28.340Z,8.09
2022-11-26T16:31:55.706Z,7.95
2022-11-26T16:34:22.888Z,8.02
2022-11-26T16:36:49.596Z,7.94
2022-11-26T16:39:17.526Z,7.97
2022-11-26T16:41:44.094Z,7.94
2022-11-26T16:44:10.695Z,7.94
2022-11-26T16:46:38.380Z,7.93
2022-11-26T16:49:05.286Z,7.76
2022-11-26T16:51:31.929Z,7.75
2022-11-26T16:53:58.504Z,7.58
2022-11-26T16:56:36.177Z,7.49
2022-11-26T16:59:04.971Z,7.37
2022-11-26T17:01:31.848Z,7.25
2022-11-26T17:03:58.507Z,7.20
2022-11-26T17:06:33.916Z,7.10
2022-11-26T17:09:01.275Z,6.99
2022-11-26T17:11:27.994Z,6.86
2022-11-26T17:13:55.751Z,6.78
2022-11-26T17:16:23.573Z,6.73
2022-11-26T17:18:50.661Z,6.65
2022-11-26T17:21:17.491Z,6.64
2022-11-26T17:23:44.161Z,6.59
2022-11-26T17:26:20.488Z,6.56
2022-11-26T17:28:47.697Z,6.54
2022-11-26T17:31:14.688Z,6.46
2022-11-26T17:33:41.361Z,6.33
2022-11-26T17:36:20.979Z,6.40
2022-11-26T17:38:48.449Z,6.35
2022-11-26T17:41:16.099Z,6.36
2022-11-26T17:43:43.402Z,6.35
2022-11-26T17:46:18.250Z,6.25
2022-11-26T17:48:45.815Z,5.97
2022-11-26T17:51:14.424Z,6.06
2022-11-26T17:53:42.335Z,6.00
2022-11-26T17:56:21.693Z,5.98
2022-11-26T17:58:48.812Z,5.98
2022-11-26T18:01:16.236Z,5.97
2022-11-26T18:03:43.804Z,5.93
2022-11-26T18:06:37.486Z,6.08
2022-11-26T18:09:04.416Z,6.03
2022-11-26T18:11:49.941Z,6.02
2022-11-26T18:14:17.400Z,6.00
2022-11-26T18:16:44.478Z,5.95
2022-11-26T18:19:13.787Z,5.81
2022-11-26T18:21:40.593Z,5.75
2022-11-26T18:24:08.241Z,5.76
2022-11-26T18:26:35.422Z,5.79
2022-11-26T18:29:02.815Z,5.73
2022-11-26T18:31:32.443Z,5.71
2022-11-26T18:34:02.121Z,5.71
2022-11-26T18:36:29.458Z,5.72
2022-11-26T18:38:56.366Z,5.60
2022-11-26T18:41:23.395Z,5.59
2022-11-26T18:43:49.972Z,5.66
2022-11-26T18:46:17.907Z,5.64
2022-11-26T18:48:46.804Z,5.63
2022-11-26T18:51:15.199Z,5.57
2022-11-26T18:53:42.148Z,5.57
2022-11-26T18:56:14.411Z,5.42
2022-11-26T18:58:41.551Z,5.32
2022-11-26T19:01:18.975Z,5.35
2022-11-26T19:03:45.628Z,5.27
2022-11-26T19:06:17.877Z,5.27
2022-11-26T19:08:45.104Z,5.28
2022-11-26T19:11:17.827Z,5.30
2022-11-26T19:13:44.405Z,5.22
2022-11-26T19:16:16.692Z,5.27
2022-11-26T19:18:44.675Z,5.32
2022-11-26T19:21:17.518Z,5.32
2022-11-26T19:23:44.235Z,5.26
2022-11-26T19:26:11.274Z,5.29
2022-11-26T19:28:37.903Z,5.24
2022-11-26T19:31:07.645Z,5.26
2022-11-26T19:33:34.509Z,5.23
2022-11-26T19:36:13.105Z,5.21
2022-11-26T19:38:39.840Z,5.27
2022-11-26T19:41:07.146Z,5.24
2022-11-26T19:43:35.972Z,5.18
2022-11-26T19:46:04.073Z,5.19
2022-11-26T19:48:30.869Z,5.24
2022-11-26T19:50:57.511Z,5.19
2022-11-26T19:53:24.506Z,5.17
2022-11-26T19:55:58.637Z,5.15
2022-11-26T19:58:25.548Z,5.07
2022-11-26T20:00:52.395Z,5.05
2022-11-26T20:03:19.484Z,5.10
2022-11-26T20:05:46.647Z,5.22
2022-11-26T20:08:13.776Z,5.24
2022-11-26T20:10:40.503Z,5.30
2022-11-26T20:13:08.043Z,5.35
2022-11-26T20:15:40.680Z,5.41
2022-11-26T20:18:07.948Z,5.40
2022-11-26T20:20:35.338Z,5.44
2022-11-26T20:23:02.241Z,5.49
2022-11-26T20:25:33.075Z,5.45
2022-11-26T20:27:59.730Z,5.59
2022-11-26T20:30:26.814Z,5.58
2022-11-26T20:32:53.420Z,5.66
2022-11-26T20:35:20.026Z,5.69
2022-11-26T20:37:46.630Z,5.71
2022-11-26T20:40:13.400Z,5.90
2022-11-26T20:42:40.919Z,5.85
2022-11-26T20:45:07.700Z,5.91
2022-11-26T20:47:34.342Z,6.01
2022-11-26T20:50:00.944Z,6.05
2022-11-26T20:52:27.542Z,5.98
2022-11-26T20:54:54.217Z,6.04
2022-11-26T20:57:21.535Z,5.96
2022-11-26T20:59:48.154Z,5.98
2022-11-26T21:02:15.607Z,6.02
2022-11-26T21:04:42.314Z,5.93
2022-11-26T21:07:08.890Z,5.93
2022-11-26T21:09:35.459Z,5.93
2022-11-26T21:12:02.083Z,6.02
2022-11-26T21:14:29.598Z,6.07
2022-11-26T21:16:56.265Z,6.03
2022-11-26T21:19:23.006Z,6.08
2022-11-26T21:21:49.592Z,6.09
2022-11-26T21:24:17.075Z,6.18
2022-11-26T21:26:43.681Z,6.09
2022-11-26T21:29:10.291Z,6.15
2022-11-26T21:31:37.225Z,6.18
2022-11-26T21:34:06.297Z,6.19
2022-11-26T21:36:35.079Z,6.17
2022-11-26T21:39:02.173Z,6.13
2022-11-26T21:41:29.074Z,6.19
2022-11-26T21:43:55.695Z,6.20
2022-11-26T21:46:25.041Z,6.17
2022-11-26T21:48:52.964Z,6.08
2022-11-26T21:51:20.623Z,6.10
2022-11-26T21:53:49.580Z,6.14
2022-11-26T21:56:24.708Z,6.14
2022-11-26T21:58:51.557Z,6.11
2022-11-26T22:01:27.132Z,6.10
2022-11-26T22:03:56.390Z,6.04
2022-11-26T22:06:23.970Z,6.06
2022-11-26T22:08:51.245Z,6.05
2022-11-26T22:11:24.265Z,6.12
2022-11-26T22:13:51.431Z,6.12
2022-11-26T22:16:19.974Z,6.16
2022-11-26T22:18:47.714Z,6.09
2022-11-26T22:21:21.513Z,6.04
2022-11-26T22:23:49.421Z,5.96
2022-11-26T22:26:16.332Z,5.94
2022-11-26T22:28:43.128Z,5.84
2022-11-26T22:31:19.633Z,5.85
2022-11-26T22:33:46.968Z,5.90
2022-11-26T22:36:13.996Z,5.79
2022-11-26T22:38:41.979Z,5.83
2022-11-26T22:41:10.578Z,5.84
2022-11-26T22:43:37.645Z,5.78
2022-11-26T22:46:09.795Z,5.72
2022-11-26T22:48:36.619Z,5.75
2022-11-26T22:51:03.780Z,5.64
2022-11-26T22:53:31.432Z,5.71
2022-11-26T22:55:59.862Z,5.72
2022-11-26T22:58:28.250Z,5.78
2022-11-26T23:00:57.389Z,5.84
2022-11-26T23:03:25.398Z,5.92
2022-11-26T23:05:52.781Z,5.80
2022-11-26T23:08:20.724Z,5.79
2022-11-26T23:10:48.532Z,5.80
2022-11-26T23:13:16.083Z,5.91
2022-11-26T23:15:45.061Z,5.84
2022-11-26T23:18:13.870Z,5.83
2022-11-26T23:20:40.847Z,5.91
2022-11-26T23:23:07.455Z,5.92
2022-11-26T23:25:37.983Z,5.92
2022-11-26T23:28:04.747Z,5.99
2022-11-26T23:30:31.309Z,6.08
2022-11-26T23:32:57.958Z,6.00
2022-11-26T23:35:24.574Z,6.10
2022-11-26T23:37:51.139Z,6.06
2022-11-26T23:40:17.831Z,5.99
2022-11-26T23:42:44.484Z,6.00
2022-11-26T23:45:11.209Z,6.09
2022-11-26T23:47:39.837Z,6.06
2022-11-26T23:50:07.246Z,6.08
2022-11-26T23:52:34.805Z,6.16
2022-11-26T23:55:01.649Z,6.16
2022-11-26T23:57:28.356Z,6.21
2022-11-26T23:59:54.945Z,6.26
